sensor_id;sensor_type;location;lat;lon;timestamp;temperature;humidity
43089;DHT22;28709;52.030;5.652;2023-10-31T00:01:49;10.00;99.90
43089;DHT22;28709;52.030;5.652;2023-10-31T00:04:15;10.00;99.90
43089;DHT22;28709;52.030;5.652;2023-10-31T00:06:41;10.00;99.90
43089;DHT22;28709;52.030;5.652;2023-10-31T00:09:06;10.00;99.90
43089;DHT22;28709;52.030;5.652;2023-10-31T00:11:32;10.00;99.90
43089;DHT22;28709;52.030;5.652;2023-10-31T00:13:58;10.00;99.90
43089;DHT22;28709;52.030;5.652;2023-10-31T00:16:23;10.00;99.90
43089;DHT22;28709;52.030;5.652;2023-10-31T00:18:49;9.90;99.90
43089;DHT22;28709;52.030;5.652;2023-10-31T00:21:15;9.90;99.90
43089;DHT22;28709;52.030;5.652;2023-10-31T00:23:45;9.90;99.90
43089;DHT22;28709;52.030;5.652;2023-10-31T00:26:11;9.90;99.90
43089;DHT22;28709;52.030;5.652;2023-10-31T00:28:37;9.80;99.90
43089;DHT22;28709;52.030;5.652;2023-10-31T00:31:03;9.90;99.90
43089;DHT22;28709;52.030;5.652;2023-10-31T00:33:29;9.80;99.90
43089;DHT22;28709;52.030;5.652;2023-10-31T00:35:55;9.80;99.90
43089;DHT22;28709;52.030;5.652;2023-10-31T00:38:21;9.80;99.90
43089;DHT22;28709;52.030;5.652;2023-10-31T00:40:46;9.80;99.90
43089;DHT22;28709;52.030;5.652;2023-10-31T00:43:12;9.80;99.90
43089;DHT22;28709;52.030;5.652;2023-10-31T00:45:38;9.80;99.90
43089;DHT22;28709;52.030;5.652;2023-10-31T00:48:03;9.80;99.90
43089;DHT22;28709;52.030;5.652;2023-10-31T00:50:29;9.80;99.90
43089;DHT22;28709;52.030;5.652;2023-10-31T00:52:55;9.80;99.90
43089;DHT22;28709;52.030;5.652;2023-10-31T00:55:20;9.80;99.90
43089;DHT22;28709;52.030;5.652;2023-10-31T00:57:46;9.80;99.90
43089;DHT22;28709;52.030;5.652;2023-10-31T01:00:12;9.80;99.90
43089;DHT22;28709;52.030;5.652;2023-10-31T01:02:38;9.80;99.90
43089;DHT22;28709;52.030;5.652;2023-10-31T01:05:03;9.80;99.90
43089;DHT22;28709;52.030;5.652;2023-10-31T01:07:29;9.80;99.90
43089;DHT22;28709;52.030;5.652;2023-10-31T01:09:55;9.80;99.90
43089;DHT22;28709;52.030;5.652;2023-10-31T01:12:21;9.80;99.90
43089;DHT22;28709;52.030;5.652;2023-10-31T01:14:46;9.80;99.90
43089;DHT22;28709;52.030;5.652;2023-10-31T01:17:12;9.80;99.90
43089;DHT22;28709;52.030;5.652;2023-10-31T01:19:37;9.80;99.90
43089;DHT22;28709;52.030;5.652;2023-10-31T01:22:03;9.80;99.90
43089;DHT22;28709;52.030;5.652;2023-10-31T01:24:29;9.90;99.90
43089;DHT22;28709;52.030;5.652;2023-10-31T01:26:54;9.90;99.90
43089;DHT22;28709;52.030;5.652;2023-10-31T01:29:20;9.90;99.90
43089;DHT22;28709;52.030;5.652;2023-10-31T01:31:46;9.90;99.90
43089;DHT22;28709;52.030;5.652;2023-10-31T01:34:11;9.90;99.90
43089;DHT22;28709;52.030;5.652;2023-10-31T01:36:37;9.90;99.90
43089;DHT22;28709;52.030;5.652;2023-10-31T01:39:03;10.00;99.90
43089;DHT22;28709;52.030;5.652;2023-10-31T01:41:28;10.00;99.90
43089;DHT22;28709;52.030;5.652;2023-10-31T01:43:55;10.00;99.90
43089;DHT22;28709;52.030;5.652;2023-10-31T01:46:21;10.00;99.90
43089;DHT22;28709;52.030;5.652;2023-10-31T01:48:46;10.00;99.90
43089;DHT22;28709;52.030;5.652;2023-10-31T01:51:13;10.00;99.90
43089;DHT22;28709;52.030;5.652;2023-10-31T01:53:39;10.00;99.90
43089;DHT22;28709;52.030;5.652;2023-10-31T01:56:05;10.00;99.90
43089;DHT22;28709;52.030;5.652;2023-10-31T01:58:36;10.00;99.90
43089;DHT22;28709;52.030;5.652;2023-10-31T02:01:03;10.00;99.90
43089;DHT22;28709;52.030;5.652;2023-10-31T02:03:30;10.00;99.90
43089;DHT22;28709;52.030;5.652;2023-10-31T02:05:56;10.00;99.90
43089;DHT22;28709;52.030;5.652;2023-10-31T02:08:23;10.10;99.90
43089;DHT22;28709;52.030;5.652;2023-10-31T02:10:49;10.10;99.90
43089;DHT22;28709;52.030;5.652;2023-10-31T02:13:18;10.10;99.90
43089;DHT22;28709;52.030;5.652;2023-10-31T02:15:45;10.10;99.90
43089;DHT22;28709;52.030;5.652;2023-10-31T02:18:11;10.10;99.90
43089;DHT22;28709;52.030;5.652;2023-10-31T02:20:37;10.10;99.90
43089;DHT22;28709;52.030;5.652;2023-10-31T02:23:03;10.20;99.90
43089;DHT22;28709;52.030;5.652;2023-10-31T02:25:29;10.20;99.90
43089;DHT22;28709;52.030;5.652;2023-10-31T02:27:55;10.20;99.90
43089;DHT22;28709;52.030;5.652;2023-10-31T02:30:21;10.20;99.90
43089;DHT22;28709;52.030;5.652;2023-10-31T02:32:47;10.20;99.90
43089;DHT22;28709;52.030;5.652;2023-10-31T02:35:13;10.20;99.90
43089;DHT22;28709;52.030;5.652;2023-10-31T02:37:39;10.20;99.90
43089;DHT22;28709;52.030;5.652;2023-10-31T02:40:05;10.20;99.90
43089;DHT22;28709;52.030;5.652;2023-10-31T02:42:31;10.20;99.90
43089;DHT22;28709;52.030;5.652;2023-10-31T02:44:57;10.20;99.90
43089;DHT22;28709;52.030;5.652;2023-10-31T02:47:23;10.20;99.90
43089;DHT22;28709;52.030;5.652;2023-10-31T02:49:48;10.20;99.90
43089;DHT22;28709;52.030;5.652;2023-10-31T02:52:14;10.20;99.90
43089;DHT22;28709;52.030;5.652;2023-10-31T02:54:40;10.20;99.90
43089;DHT22;28709;52.030;5.652;2023-10-31T02:57:05;10.20;99.90
43089;DHT22;28709;52.030;5.652;2023-10-31T02:59:31;10.20;99.90
43089;DHT22;28709;52.030;5.652;2023-10-31T03:01:57;10.20;99.90
43089;DHT22;28709;52.030;5.652;2023-10-31T03:04:23;10.20;99.90
43089;DHT22;28709;52.030;5.652;2023-10-31T03:06:49;10.30;99.90
43089;DHT22;28709;52.030;5.652;2023-10-31T03:09:15;10.20;99.90
43089;DHT22;28709;52.030;5.652;2023-10-31T03:11:40;10.30;99.90
43089;DHT22;28709;52.030;5.652;2023-10-31T03:14:06;10.30;99.90
43089;DHT22;28709;52.030;5.652;2023-10-31T03:16:32;10.30;99.90
43089;DHT22;28709;52.030;5.652;2023-10-31T03:18:58;10.30;99.90
43089;DHT22;28709;52.030;5.652;2023-10-31T03:21:24;10.30;99.90
43089;DHT22;28709;52.030;5.652;2023-10-31T03:23:50;10.30;99.90
43089;DHT22;28709;52.030;5.652;2023-10-31T03:26:19;10.30;99.90
43089;DHT22;28709;52.030;5.652;2023-10-31T03:28:45;10.30;99.90
43089;DHT22;28709;52.030;5.652;2023-10-31T03:31:11;10.30;99.90
43089;DHT22;28709;52.030;5.652;2023-10-31T03:33:37;10.30;99.90
43089;DHT22;28709;52.030;5.652;2023-10-31T03:36:04;10.30;99.90
43089;DHT22;28709;52.030;5.652;2023-10-31T03:38:31;10.30;99.90
43089;DHT22;28709;52.030;5.652;2023-10-31T03:40:56;10.30;99.90
43089;DHT22;28709;52.030;5.652;2023-10-31T03:43:22;10.30;99.90
43089;DHT22;28709;52.030;5.652;2023-10-31T03:45:48;10.30;99.90
43089;DHT22;28709;52.030;5.652;2023-10-31T03:48:15;10.30;99.90
43089;DHT22;28709;52.030;5.652;2023-10-31T03:50:40;10.20;99.90
43089;DHT22;28709;52.030;5.652;2023-10-31T03:53:06;10.20;99.90
43089;DHT22;28709;52.030;5.652;2023-10-31T03:55:32;10.20;99.90
43089;DHT22;28709;52.030;5.652;2023-10-31T03:57:57;10.20;99.90
43089;DHT22;28709;52.030;5.652;2023-10-31T04:00:23;10.10;99.90
43089;DHT22;28709;52.030;5.652;2023-10-31T04:02:49;10.10;99.90
43089;DHT22;28709;52.030;5.652;2023-10-31T04:05:14;10.10;99.90
43089;DHT22;28709;52.030;5.652;2023-10-31T04:07:40;10.10;99.90
43089;DHT22;28709;52.030;5.652;2023-10-31T04:10:06;10.20;99.90
43089;DHT22;28709;52.030;5.652;2023-10-31T04:12:33;10.10;99.90
43089;DHT22;28709;52.030;5.652;2023-10-31T04:14:58;10.20;99.90
43089;DHT22;28709;52.030;5.652;2023-10-31T04:17:24;10.20;99.90
43089;DHT22;28709;52.030;5.652;2023-10-31T04:19:49;10.20;99.90
43089;DHT22;28709;52.030;5.652;2023-10-31T04:22:15;10.10;99.90
43089;DHT22;28709;52.030;5.652;2023-10-31T04:24:40;10.10;99.90
43089;DHT22;28709;52.030;5.652;2023-10-31T04:27:06;10.10;99.90
43089;DHT22;28709;52.030;5.652;2023-10-31T04:29:32;10.10;99.90
43089;DHT22;28709;52.030;5.652;2023-10-31T04:31:58;10.10;99.90
43089;DHT22;28709;52.030;5.652;2023-10-31T04:34:24;10.10;99.90
43089;DHT22;28709;52.030;5.652;2023-10-31T04:36:49;10.10;99.90
43089;DHT22;28709;52.030;5.652;2023-10-31T04:39:15;10.10;99.90
43089;DHT22;28709;52.030;5.652;2023-10-31T04:41:41;10.10;99.90
43089;DHT22;28709;52.030;5.652;2023-10-31T04:44:06;10.10;99.90
43089;DHT22;28709;52.030;5.652;2023-10-31T04:46:32;10.10;99.90
43089;DHT22;28709;52.030;5.652;2023-10-31T04:48:59;10.00;99.90
43089;DHT22;28709;52.030;5.652;2023-10-31T04:51:24;10.10;99.90
43089;DHT22;28709;52.030;5.652;2023-10-31T04:53:50;10.10;99.90
43089;DHT22;28709;52.030;5.652;2023-10-31T04:56:16;10.10;99.90
43089;DHT22;28709;52.030;5.652;2023-10-31T04:58:42;10.00;99.90
43089;DHT22;28709;52.030;5.652;2023-10-31T05:01:12;10.00;99.90
43089;DHT22;28709;52.030;5.652;2023-10-31T05:03:38;10.00;99.90
43089;DHT22;28709;52.030;5.652;2023-10-31T05:06:04;10.00;99.90
43089;DHT22;28709;52.030;5.652;2023-10-31T05:08:31;10.00;99.90
43089;DHT22;28709;52.030;5.652;2023-10-31T05:10:58;9.90;99.90
43089;DHT22;28709;52.030;5.652;2023-10-31T05:13:24;9.90;99.90
43089;DHT22;28709;52.030;5.652;2023-10-31T05:15:50;10.00;99.90
43089;DHT22;28709;52.030;5.652;2023-10-31T05:18:16;10.00;99.90
43089;DHT22;28709;52.030;5.652;2023-10-31T05:20:42;10.00;99.90
43089;DHT22;28709;52.030;5.652;2023-10-31T05:23:07;9.90;99.90
43089;DHT22;28709;52.030;5.652;2023-10-31T05:25:34;10.00;99.90
43089;DHT22;28709;52.030;5.652;2023-10-31T05:27:59;10.00;99.90
43089;DHT22;28709;52.030;5.652;2023-10-31T05:30:25;10.00;99.90
43089;DHT22;28709;52.030;5.652;2023-10-31T05:32:51;10.00;99.90
43089;DHT22;28709;52.030;5.652;2023-10-31T05:35:17;10.00;99.90
43089;DHT22;28709;52.030;5.652;2023-10-31T05:37:43;10.00;99.90
43089;DHT22;28709;52.030;5.652;2023-10-31T05:40:10;10.00;99.90
43089;DHT22;28709;52.030;5.652;2023-10-31T05:42:35;10.00;99.90
43089;DHT22;28709;52.030;5.652;2023-10-31T05:45:01;10.00;99.90
43089;DHT22;28709;52.030;5.652;2023-10-31T05:47:27;10.00;99.90
43089;DHT22;28709;52.030;5.652;2023-10-31T05:49:53;9.90;99.90
43089;DHT22;28709;52.030;5.652;2023-10-31T05:52:19;9.90;99.90
43089;DHT22;28709;52.030;5.652;2023-10-31T05:54:44;9.90;99.90
43089;DHT22;28709;52.030;5.652;2023-10-31T05:57:10;9.90;99.90
43089;DHT22;28709;52.030;5.652;2023-10-31T05:59:35;9.90;99.90
43089;DHT22;28709;52.030;5.652;2023-10-31T06:02:01;9.90;99.90
43089;DHT22;28709;52.030;5.652;2023-10-31T06:04:27;9.90;99.90
43089;DHT22;28709;52.030;5.652;2023-10-31T06:06:52;9.80;99.90
43089;DHT22;28709;52.030;5.652;2023-10-31T06:09:18;9.80;99.90
43089;DHT22;28709;52.030;5.652;2023-10-31T06:11:44;9.80;99.90
43089;DHT22;28709;52.030;5.652;2023-10-31T06:14:11;9.70;99.90
43089;DHT22;28709;52.030;5.652;2023-10-31T06:16:43;9.70;99.90
43089;DHT22;28709;52.030;5.652;2023-10-31T06:19:09;9.70;99.90
43089;DHT22;28709;52.030;5.652;2023-10-31T06:21:35;9.70;99.90
43089;DHT22;28709;52.030;5.652;2023-10-31T06:24:02;9.70;99.90
43089;DHT22;28709;52.030;5.652;2023-10-31T06:26:27;9.70;99.90
43089;DHT22;28709;52.030;5.652;2023-10-31T06:28:54;9.60;99.90
43089;DHT22;28709;52.030;5.652;2023-10-31T06:31:20;9.70;99.90
43089;DHT22;28709;52.030;5.652;2023-10-31T06:33:46;9.70;99.90
43089;DHT22;28709;52.030;5.652;2023-10-31T06:36:12;9.70;99.90
43089;DHT22;28709;52.030;5.652;2023-10-31T06:38:37;9.70;99.90
43089;DHT22;28709;52.030;5.652;2023-10-31T06:41:03;9.70;99.90
43089;DHT22;28709;52.030;5.652;2023-10-31T06:43:29;9.70;99.90
43089;DHT22;28709;52.030;5.652;2023-10-31T06:45:55;9.60;99.90
43089;DHT22;28709;52.030;5.652;2023-10-31T06:48:20;9.70;99.90
43089;DHT22;28709;52.030;5.652;2023-10-31T06:50:46;9.70;99.90
43089;DHT22;28709;52.030;5.652;2023-10-31T06:53:12;9.70;99.90
43089;DHT22;28709;52.030;5.652;2023-10-31T06:55:37;9.70;99.90
43089;DHT22;28709;52.030;5.652;2023-10-31T06:58:03;9.70;99.90
43089;DHT22;28709;52.030;5.652;2023-10-31T07:00:29;9.80;99.90
43089;DHT22;28709;52.030;5.652;2023-10-31T07:02:54;9.80;99.90
43089;DHT22;28709;52.030;5.652;2023-10-31T07:05:20;9.80;99.90
43089;DHT22;28709;52.030;5.652;2023-10-31T07:07:46;9.90;99.90
43089;DHT22;28709;52.030;5.652;2023-10-31T07:10:12;9.90;99.90
43089;DHT22;28709;52.030;5.652;2023-10-31T07:12:38;9.90;99.90
43089;DHT22;28709;52.030;5.652;2023-10-31T07:15:04;9.90;99.90
43089;DHT22;28709;52.030;5.652;2023-10-31T07:17:30;10.00;99.90
43089;DHT22;28709;52.030;5.652;2023-10-31T07:19:56;10.00;99.90
43089;DHT22;28709;52.030;5.652;2023-10-31T07:22:22;10.10;99.90
43089;DHT22;28709;52.030;5.652;2023-10-31T07:24:50;10.10;99.90
43089;DHT22;28709;52.030;5.652;2023-10-31T07:27:16;10.30;99.90
43089;DHT22;28709;52.030;5.652;2023-10-31T07:29:42;10.40;99.90
43089;DHT22;28709;52.030;5.652;2023-10-31T07:32:08;10.60;99.90
43089;DHT22;28709;52.030;5.652;2023-10-31T07:34:34;10.80;99.90
43089;DHT22;28709;52.030;5.652;2023-10-31T07:37:00;10.80;99.90
43089;DHT22;28709;52.030;5.652;2023-10-31T07:39:25;10.90;99.90
43089;DHT22;28709;52.030;5.652;2023-10-31T07:41:51;11.00;99.90
43089;DHT22;28709;52.030;5.652;2023-10-31T07:44:17;11.20;99.90
43089;DHT22;28709;52.030;5.652;2023-10-31T07:46:43;11.20;99.90
43089;DHT22;28709;52.030;5.652;2023-10-31T07:49:08;11.20;99.90
43089;DHT22;28709;52.030;5.652;2023-10-31T07:51:34;11.10;99.90
43089;DHT22;28709;52.030;5.652;2023-10-31T07:54:00;11.00;99.90
43089;DHT22;28709;52.030;5.652;2023-10-31T07:56:26;10.90;99.90
43089;DHT22;28709;52.030;5.652;2023-10-31T07:58:51;10.90;99.90
43089;DHT22;28709;52.030;5.652;2023-10-31T08:01:18;10.90;99.90
43089;DHT22;28709;52.030;5.652;2023-10-31T08:03:46;11.00;99.90
43089;DHT22;28709;52.030;5.652;2023-10-31T08:06:12;11.20;99.90
43089;DHT22;28709;52.030;5.652;2023-10-31T08:08:38;11.30;99.90
43089;DHT22;28709;52.030;5.652;2023-10-31T08:11:06;11.40;99.90
43089;DHT22;28709;52.030;5.652;2023-10-31T08:13:32;11.50;99.90
43089;DHT22;28709;52.030;5.652;2023-10-31T08:15:58;11.40;99.90
43089;DHT22;28709;52.030;5.652;2023-10-31T08:18:24;11.30;99.90
43089;DHT22;28709;52.030;5.652;2023-10-31T08:20:50;11.30;99.90
43089;DHT22;28709;52.030;5.652;2023-10-31T08:23:17;11.20;99.90
43089;DHT22;28709;52.030;5.652;2023-10-31T08:25:43;11.20;99.90
43089;DHT22;28709;52.030;5.652;2023-10-31T08:28:09;11.10;99.90
43089;DHT22;28709;52.030;5.652;2023-10-31T08:30:35;11.10;99.90
43089;DHT22;28709;52.030;5.652;2023-10-31T08:33:01;11.10;99.90
43089;DHT22;28709;52.030;5.652;2023-10-31T08:35:26;11.10;99.90
43089;DHT22;28709;52.030;5.652;2023-10-31T08:37:53;11.10;99.90
43089;DHT22;28709;52.030;5.652;2023-10-31T08:40:19;11.20;99.90
43089;DHT22;28709;52.030;5.652;2023-10-31T08:42:45;11.20;99.90
43089;DHT22;28709;52.030;5.652;2023-10-31T08:45:11;11.20;99.90
43089;DHT22;28709;52.030;5.652;2023-10-31T08:47:36;11.30;99.90
43089;DHT22;28709;52.030;5.652;2023-10-31T08:50:02;11.40;99.90
43089;DHT22;28709;52.030;5.652;2023-10-31T08:52:28;11.50;99.90
43089;DHT22;28709;52.030;5.652;2023-10-31T08:54:53;11.70;99.90
43089;DHT22;28709;52.030;5.652;2023-10-31T08:57:19;11.90;99.90
43089;DHT22;28709;52.030;5.652;2023-10-31T08:59:45;11.90;99.90
43089;DHT22;28709;52.030;5.652;2023-10-31T09:02:10;11.90;99.90
43089;DHT22;28709;52.030;5.652;2023-10-31T09:04:36;11.90;99.90
43089;DHT22;28709;52.030;5.652;2023-10-31T09:07:02;11.90;99.90
43089;DHT22;28709;52.030;5.652;2023-10-31T09:09:27;11.90;99.90
43089;DHT22;28709;52.030;5.652;2023-10-31T09:11:54;11.90;99.90
43089;DHT22;28709;52.030;5.652;2023-10-31T09:14:20;11.90;99.90
43089;DHT22;28709;52.030;5.652;2023-10-31T09:16:45;11.90;99.90
43089;DHT22;28709;52.030;5.652;2023-10-31T09:19:11;12.00;99.90
43089;DHT22;28709;52.030;5.652;2023-10-31T09:21:37;12.00;99.90
43089;DHT22;28709;52.030;5.652;2023-10-31T09:24:03;12.00;99.90
43089;DHT22;28709;52.030;5.652;2023-10-31T09:26:28;12.20;99.90
43089;DHT22;28709;52.030;5.652;2023-10-31T09:28:55;12.60;99.90
43089;DHT22;28709;52.030;5.652;2023-10-31T09:31:20;13.30;99.90
43089;DHT22;28709;52.030;5.652;2023-10-31T09:33:46;13.90;99.90
43089;DHT22;28709;52.030;5.652;2023-10-31T09:36:12;14.40;99.90
43089;DHT22;28709;52.030;5.652;2023-10-31T09:38:40;14.70;99.90
43089;DHT22;28709;52.030;5.652;2023-10-31T09:41:06;14.80;99.90
43089;DHT22;28709;52.030;5.652;2023-10-31T09:43:32;14.80;99.90
43089;DHT22;28709;52.030;5.652;2023-10-31T09:45:58;15.00;99.90
43089;DHT22;28709;52.030;5.652;2023-10-31T09:48:26;15.10;99.90
43089;DHT22;28709;52.030;5.652;2023-10-31T09:50:52;15.40;99.90
43089;DHT22;28709;52.030;5.652;2023-10-31T09:53:19;15.70;99.90
43089;DHT22;28709;52.030;5.652;2023-10-31T09:55:46;15.90;99.90
43089;DHT22;28709;52.030;5.652;2023-10-31T09:58:12;16.10;99.90
43089;DHT22;28709;52.030;5.652;2023-10-31T10:00:38;16.00;99.90
43089;DHT22;28709;52.030;5.652;2023-10-31T10:03:07;15.90;99.90
43089;DHT22;28709;52.030;5.652;2023-10-31T10:05:35;16.10;99.90
43089;DHT22;28709;52.030;5.652;2023-10-31T10:08:02;16.30;99.90
43089;DHT22;28709;52.030;5.652;2023-10-31T10:10:28;16.60;99.90
43089;DHT22;28709;52.030;5.652;2023-10-31T10:12:55;16.70;99.90
43089;DHT22;28709;52.030;5.652;2023-10-31T10:15:21;16.90;99.90
43089;DHT22;28709;52.030;5.652;2023-10-31T10:17:53;17.00;99.90
43089;DHT22;28709;52.030;5.652;2023-10-31T10:20:19;16.80;99.90
43089;DHT22;28709;52.030;5.652;2023-10-31T10:22:45;16.60;99.90
43089;DHT22;28709;52.030;5.652;2023-10-31T10:25:16;16.40;99.90
43089;DHT22;28709;52.030;5.652;2023-10-31T10:27:43;16.20;99.90
43089;DHT22;28709;52.030;5.652;2023-10-31T10:30:09;16.00;99.90
43089;DHT22;28709;52.030;5.652;2023-10-31T10:32:35;16.00;99.90
43089;DHT22;28709;52.030;5.652;2023-10-31T10:35:01;16.00;99.90
43089;DHT22;28709;52.030;5.652;2023-10-31T10:37:27;16.30;99.90
43089;DHT22;28709;52.030;5.652;2023-10-31T10:39:53;16.50;99.90
43089;DHT22;28709;52.030;5.652;2023-10-31T10:42:44;16.40;99.90
43089;DHT22;28709;52.030;5.652;2023-10-31T10:45:13;16.30;99.90
43089;DHT22;28709;52.030;5.652;2023-10-31T10:47:39;16.30;99.90
43089;DHT22;28709;52.030;5.652;2023-10-31T10:50:06;16.20;99.90
43089;DHT22;28709;52.030;5.652;2023-10-31T10:52:42;16.10;99.90
43089;DHT22;28709;52.030;5.652;2023-10-31T10:55:21;16.30;99.90
43089;DHT22;28709;52.030;5.652;2023-10-31T11:00:20;16.30;99.90
43089;DHT22;28709;52.030;5.652;2023-10-31T11:02:51;16.00;99.90
43089;DHT22;28709;52.030;5.652;2023-10-31T11:05:18;15.70;99.90
43089;DHT22;28709;52.030;5.652;2023-10-31T11:07:44;15.40;99.90
43089;DHT22;28709;52.030;5.652;2023-10-31T11:10:11;15.10;99.90
43089;DHT22;28709;52.030;5.652;2023-10-31T11:12:37;14.90;99.90
43089;DHT22;28709;52.030;5.652;2023-10-31T11:15:07;14.70;99.90
43089;DHT22;28709;52.030;5.652;2023-10-31T11:17:37;14.60;99.90
43089;DHT22;28709;52.030;5.652;2023-10-31T11:20:04;14.70;99.90
43089;DHT22;28709;52.030;5.652;2023-10-31T11:22:44;14.70;99.90
43089;DHT22;28709;52.030;5.652;2023-10-31T11:25:15;14.90;99.90
43089;DHT22;28709;52.030;5.652;2023-10-31T11:27:43;15.10;99.90
43089;DHT22;28709;52.030;5.652;2023-10-31T11:30:29;15.70;99.90
43089;DHT22;28709;52.030;5.652;2023-10-31T11:32:58;16.20;99.90
43089;DHT22;28709;52.030;5.652;2023-10-31T11:35:24;16.20;99.90
43089;DHT22;28709;52.030;5.652;2023-10-31T11:38:04;16.00;99.90
43089;DHT22;28709;52.030;5.652;2023-10-31T11:43:09;15.50;99.90
43089;DHT22;28709;52.030;5.652;2023-10-31T11:45:43;15.30;99.90
43089;DHT22;28709;52.030;5.652;2023-10-31T11:48:14;15.00;99.90
43089;DHT22;28709;52.030;5.652;2023-10-31T11:50:40;14.80;99.90
43089;DHT22;28709;52.030;5.652;2023-10-31T11:53:15;14.70;99.90
43089;DHT22;28709;52.030;5.652;2023-10-31T11:55:43;14.50;99.90
43089;DHT22;28709;52.030;5.652;2023-10-31T11:58:23;14.50;99.90
43089;DHT22;28709;52.030;5.652;2023-10-31T12:00:51;14.40;99.90
43089;DHT22;28709;52.030;5.652;2023-10-31T12:03:19;14.30;99.90
43089;DHT22;28709;52.030;5.652;2023-10-31T12:05:55;14.20;99.90
43089;DHT22;28709;52.030;5.652;2023-10-31T12:08:28;14.10;99.90
43089;DHT22;28709;52.030;5.652;2023-10-31T12:11:12;14.10;99.90
43089;DHT22;28709;52.030;5.652;2023-10-31T12:13:40;14.10;99.90
43089;DHT22;28709;52.030;5.652;2023-10-31T12:16:06;14.00;99.90
43089;DHT22;28709;52.030;5.652;2023-10-31T12:18:34;14.00;99.90
43089;DHT22;28709;52.030;5.652;2023-10-31T12:21:00;14.00;99.90
43089;DHT22;28709;52.030;5.652;2023-10-31T12:23:26;14.00;99.90
43089;DHT22;28709;52.030;5.652;2023-10-31T12:25:53;13.90;99.90
43089;DHT22;28709;52.030;5.652;2023-10-31T12:28:23;13.90;99.90
43089;DHT22;28709;52.030;5.652;2023-10-31T12:30:51;13.90;99.90
43089;DHT22;28709;52.030;5.652;2023-10-31T12:33:20;13.80;99.90
43089;DHT22;28709;52.030;5.652;2023-10-31T12:35:46;13.80;99.90
43089;DHT22;28709;52.030;5.652;2023-10-31T12:38:13;13.70;99.90
43089;DHT22;28709;52.030;5.652;2023-10-31T12:40:43;13.50;99.90
43089;DHT22;28709;52.030;5.652;2023-10-31T12:43:09;13.40;99.90
43089;DHT22;28709;52.030;5.652;2023-10-31T12:45:36;13.40;99.90
43089;DHT22;28709;52.030;5.652;2023-10-31T12:48:08;13.40;99.90
43089;DHT22;28709;52.030;5.652;2023-10-31T12:50:36;13.40;99.90
43089;DHT22;28709;52.030;5.652;2023-10-31T12:53:08;13.40;99.90
43089;DHT22;28709;52.030;5.652;2023-10-31T12:55:41;13.50;99.90
43089;DHT22;28709;52.030;5.652;2023-10-31T12:58:07;13.70;99.90
43089;DHT22;28709;52.030;5.652;2023-10-31T13:00:36;13.90;99.90
43089;DHT22;28709;52.030;5.652;2023-10-31T13:03:06;14.10;99.90
43089;DHT22;28709;52.030;5.652;2023-10-31T13:05:33;14.30;99.90
43089;DHT22;28709;52.030;5.652;2023-10-31T13:08:00;14.40;99.90
43089;DHT22;28709;52.030;5.652;2023-10-31T13:10:29;14.50;99.90
43089;DHT22;28709;52.030;5.652;2023-10-31T13:12:55;14.40;99.90
43089;DHT22;28709;52.030;5.652;2023-10-31T13:15:23;14.40;99.90
43089;DHT22;28709;52.030;5.652;2023-10-31T13:17:49;14.20;99.90
43089;DHT22;28709;52.030;5.652;2023-10-31T13:20:18;14.20;99.90
43089;DHT22;28709;52.030;5.652;2023-10-31T13:22:44;14.10;99.90
43089;DHT22;28709;52.030;5.652;2023-10-31T13:25:12;14.10;99.90
43089;DHT22;28709;52.030;5.652;2023-10-31T13:27:39;14.00;99.90
43089;DHT22;28709;52.030;5.652;2023-10-31T13:30:06;13.90;99.90
43089;DHT22;28709;52.030;5.652;2023-10-31T13:32:33;13.80;99.90
43089;DHT22;28709;52.030;5.652;2023-10-31T13:34:59;13.70;99.90
43089;DHT22;28709;52.030;5.652;2023-10-31T13:37:25;13.70;99.90
43089;DHT22;28709;52.030;5.652;2023-10-31T13:39:51;13.70;99.90
43089;DHT22;28709;52.030;5.652;2023-10-31T13:42:16;13.70;99.90
43089;DHT22;28709;52.030;5.652;2023-10-31T13:44:43;13.70;99.90
43089;DHT22;28709;52.030;5.652;2023-10-31T13:47:09;13.60;99.90
43089;DHT22;28709;52.030;5.652;2023-10-31T13:49:36;13.60;99.90
43089;DHT22;28709;52.030;5.652;2023-10-31T13:52:03;13.50;99.90
43089;DHT22;28709;52.030;5.652;2023-10-31T13:54:29;13.50;99.90
43089;DHT22;28709;52.030;5.652;2023-10-31T13:56:54;13.50;99.90
43089;DHT22;28709;52.030;5.652;2023-10-31T13:59:20;13.50;99.90
43089;DHT22;28709;52.030;5.652;2023-10-31T14:01:47;13.50;99.90
43089;DHT22;28709;52.030;5.652;2023-10-31T14:04:13;13.40;99.90
43089;DHT22;28709;52.030;5.652;2023-10-31T14:06:39;13.40;99.90
43089;DHT22;28709;52.030;5.652;2023-10-31T14:09:06;13.30;99.90
43089;DHT22;28709;52.030;5.652;2023-10-31T14:11:33;13.20;99.90
43089;DHT22;28709;52.030;5.652;2023-10-31T14:13:59;13.20;99.90
43089;DHT22;28709;52.030;5.652;2023-10-31T14:16:29;13.20;99.90
43089;DHT22;28709;52.030;5.652;2023-10-31T14:18:57;13.20;99.90
43089;DHT22;28709;52.030;5.652;2023-10-31T14:21:23;13.20;99.90
43089;DHT22;28709;52.030;5.652;2023-10-31T14:23:51;13.20;99.90
43089;DHT22;28709;52.030;5.652;2023-10-31T14:26:22;13.20;99.90
43089;DHT22;28709;52.030;5.652;2023-10-31T14:28:48;13.20;99.90
43089;DHT22;28709;52.030;5.652;2023-10-31T14:31:15;13.20;99.90
43089;DHT22;28709;52.030;5.652;2023-10-31T14:33:41;13.20;99.90
43089;DHT22;28709;52.030;5.652;2023-10-31T14:36:07;13.30;99.90
43089;DHT22;28709;52.030;5.652;2023-10-31T14:38:35;13.20;99.90
43089;DHT22;28709;52.030;5.652;2023-10-31T14:41:01;13.20;99.90
43089;DHT22;28709;52.030;5.652;2023-10-31T14:43:27;13.20;99.90
43089;DHT22;28709;52.030;5.652;2023-10-31T14:45:53;13.10;99.90
43089;DHT22;28709;52.030;5.652;2023-10-31T14:48:20;13.10;99.90
43089;DHT22;28709;52.030;5.652;2023-10-31T14:50:49;13.10;99.90
43089;DHT22;28709;52.030;5.652;2023-10-31T14:53:15;13.10;99.90
43089;DHT22;28709;52.030;5.652;2023-10-31T14:55:41;13.10;99.90
43089;DHT22;28709;52.030;5.652;2023-10-31T14:58:07;13.00;99.90
43089;DHT22;28709;52.030;5.652;2023-10-31T15:00:34;12.90;99.90
43089;DHT22;28709;52.030;5.652;2023-10-31T15:03:00;12.80;99.90
43089;DHT22;28709;52.030;5.652;2023-10-31T15:05:25;12.80;99.90
43089;DHT22;28709;52.030;5.652;2023-10-31T15:07:51;12.80;99.90
43089;DHT22;28709;52.030;5.652;2023-10-31T15:10:18;12.70;99.90
43089;DHT22;28709;52.030;5.652;2023-10-31T15:12:46;12.70;99.90
43089;DHT22;28709;52.030;5.652;2023-10-31T15:15:14;12.70;99.90
43089;DHT22;28709;52.030;5.652;2023-10-31T15:17:40;12.60;99.90
43089;DHT22;28709;52.030;5.652;2023-10-31T15:20:06;12.60;99.90
43089;DHT22;28709;52.030;5.652;2023-10-31T15:22:35;12.60;99.90
43089;DHT22;28709;52.030;5.652;2023-10-31T15:25:01;12.50;99.90
43089;DHT22;28709;52.030;5.652;2023-10-31T15:27:26;12.50;99.90
43089;DHT22;28709;52.030;5.652;2023-10-31T15:29:52;12.50;99.90
43089;DHT22;28709;52.030;5.652;2023-10-31T15:32:18;12.50;99.90
43089;DHT22;28709;52.030;5.652;2023-10-31T15:34:43;12.50;99.90